createdAt,value
2018-03-31T00:02:22.786Z,10.63
2018-03-31T00:04:49.835Z,12.57
2018-03-31T00:07:27.107Z,8.30
2018-03-31T00:09:54.155Z,9.27
2018-03-31T00:12:21.168Z,10.57
2018-03-31T00:14:48.105Z,10.83
2018-03-31T00:17:15.059Z,10.90
2018-03-31T00:19:42.024Z,10.70
2018-03-31T00:22:08.980Z,7.80
2018-03-31T00:24:35.934Z,12.23
2018-03-31T00:27:02.872Z,7.57
2018-03-31T00:29:29.806Z,9.17
2018-03-31T00:31:56.754Z,9.93
2018-03-31T00:34:23.708Z,11.13
2018-03-31T00:36:50.649Z,7.97
2018-03-31T00:39:17.594Z,7.73
2018-03-31T00:41:44.552Z,11.30
2018-03-31T00:44:11.494Z,14.30
2018-03-31T00:46:38.446Z,10.93
2018-03-31T00:49:05.391Z,11.40
2018-03-31T00:51:32.348Z,12.93
2018-03-31T00:53:59.379Z,7.63
2018-03-31T00:56:26.309Z,16.93
2018-03-31T00:58:53.272Z,12.20
2018-03-31T01:01:20.263Z,13.13
2018-03-31T01:03:47.191Z,8.60
2018-03-31T01:06:14.121Z,8.10
2018-03-31T01:08:41.066Z,9.70
2018-03-31T01:11:08.020Z,9.33
2018-03-31T01:13:34.957Z,8.63
2018-03-31T01:16:02.097Z,10.43
2018-03-31T01:18:29.051Z,13.83
2018-03-31T01:20:56.004Z,8.00
2018-03-31T01:23:22.945Z,10.53
2018-03-31T01:25:50.036Z,9.90
2018-03-31T01:28:17.073Z,11.17
2018-03-31T01:30:44.103Z,8.70
2018-03-31T01:33:11.456Z,11.77
2018-03-31T01:35:38.733Z,13.30
2018-03-31T01:38:05.719Z,10.73
2018-03-31T01:40:32.679Z,12.43
2018-03-31T01:43:00.240Z,13.80
2018-03-31T01:45:27.193Z,10.70
2018-03-31T01:47:54.147Z,8.87
2018-03-31T01:50:21.102Z,9.70
2018-03-31T01:52:48.135Z,8.90
2018-03-31T01:55:15.075Z,7.47
2018-03-31T01:57:42.024Z,13.50
2018-03-31T02:00:08.961Z,7.90
2018-03-31T02:02:35.906Z,16.33
2018-03-31T02:05:02.839Z,14.90
2018-03-31T02:07:29.852Z,10.07
2018-03-31T02:09:56.802Z,10.50
2018-03-31T02:12:23.767Z,8.17
2018-03-31T02:14:50.731Z,9.50
2018-03-31T02:17:17.706Z,8.37
2018-03-31T02:19:44.646Z,10.57
2018-03-31T02:22:11.587Z,10.20
2018-03-31T02:24:38.522Z,13.47
2018-03-31T02:27:05.472Z,10.50
2018-03-31T02:29:32.423Z,11.87
2018-03-31T02:31:59.350Z,10.50
2018-03-31T02:34:26.321Z,14.13
2018-03-31T02:36:53.270Z,11.30
2018-03-31T02:39:20.249Z,11.20
2018-03-31T02:41:47.276Z,14.30
2018-03-31T02:44:14.224Z,12.70
2018-03-31T02:46:41.188Z,12.30
2018-03-31T02:49:08.119Z,19.23
2018-03-31T02:51:35.073Z,12.20
2018-03-31T02:57:02.193Z,13.13
2018-03-31T02:59:29.139Z,9.70
2018-03-31T03:01:56.152Z,15.17
2018-03-31T03:04:23.102Z,12.20
2018-03-31T03:06:50.083Z,13.90
2018-03-31T03:09:17.042Z,13.50
2018-03-31T03:11:43.979Z,13.70
2018-03-31T03:14:10.924Z,11.03
2018-03-31T03:16:37.861Z,9.40
2018-03-31T03:19:04.816Z,11.27
2018-03-31T03:21:31.803Z,10.30
2018-03-31T03:23:58.754Z,11.50
2018-03-31T03:26:25.732Z,10.63
2018-03-31T03:28:52.689Z,9.70
2018-03-31T03:31:19.657Z,10.70
2018-03-31T03:33:46.594Z,13.43
2018-03-31T03:36:13.536Z,13.63
2018-03-31T03:38:41.103Z,10.50
2018-03-31T03:41:09.491Z,14.93
2018-03-31T03:43:36.483Z,10.60
2018-03-31T03:46:03.621Z,11.57
2018-03-31T03:48:30.571Z,11.83
2018-03-31T03:50:57.543Z,10.03
2018-03-31T03:53:24.513Z,14.37
2018-03-31T03:55:51.474Z,12.13
2018-03-31T03:58:18.419Z,10.77
2018-03-31T04:00:45.383Z,9.87
2018-03-31T04:03:12.328Z,12.10
2018-03-31T04:05:39.292Z,12.77
2018-03-31T04:08:06.285Z,9.53
2018-03-31T04:10:33.219Z,11.47
2018-03-31T04:13:00.184Z,11.70
2018-03-31T04:15:27.148Z,13.20
2018-03-31T04:17:54.085Z,15.00
2018-03-31T04:20:21.020Z,14.00
2018-03-31T04:22:48.011Z,12.43
2018-03-31T04:25:14.983Z,19.07
2018-03-31T04:27:41.927Z,13.30
2018-03-31T04:30:08.892Z,18.80
2018-03-31T04:32:35.824Z,10.67
2018-03-31T04:35:02.743Z,17.90
2018-03-31T04:37:29.728Z,17.33
2018-03-31T04:39:56.660Z,10.83
2018-03-31T04:42:23.629Z,11.77
2018-03-31T04:44:50.612Z,14.07
2018-03-31T04:47:17.578Z,15.50
2018-03-31T04:49:44.522Z,11.03
2018-03-31T04:52:11.499Z,13.63
2018-03-31T04:54:38.463Z,12.30
2018-03-31T04:57:05.410Z,12.93
2018-03-31T04:59:32.373Z,14.40
2018-03-31T05:01:59.315Z,9.97
2018-03-31T05:04:26.276Z,11.77
2018-03-31T05:06:53.216Z,11.60
2018-03-31T05:09:20.152Z,15.87
2018-03-31T05:11:47.117Z,11.87
2018-03-31T05:14:14.043Z,11.50
2018-03-31T05:16:40.972Z,12.17
2018-03-31T05:19:07.952Z,18.17
2018-03-31T05:21:34.880Z,11.97
2018-03-31T05:24:01.860Z,13.80
2018-03-31T05:26:28.812Z,13.50
2018-03-31T05:28:55.755Z,12.43
2018-03-31T05:31:22.691Z,17.07
2018-03-31T05:33:49.628Z,13.70
2018-03-31T05:36:16.578Z,11.23
2018-03-31T05:38:43.515Z,12.70
2018-03-31T05:41:10.433Z,11.97
2018-03-31T05:43:37.379Z,15.20
2018-03-31T05:46:04.317Z,12.00
2018-03-31T05:48:31.246Z,15.27
2018-03-31T05:50:58.217Z,16.53
2018-03-31T05:53:25.161Z,11.90
2018-03-31T05:55:52.116Z,9.63
2018-03-31T05:58:19.048Z,12.13
2018-03-31T06:00:45.999Z,10.10
2018-03-31T06:03:12.963Z,10.10
2018-03-31T06:05:39.930Z,9.20
2018-03-31T06:08:06.866Z,11.43
2018-03-31T06:10:33.822Z,9.47
2018-03-31T06:13:00.772Z,8.00
2018-03-31T06:15:27.721Z,10.23
2018-03-31T06:17:54.676Z,10.17
2018-03-31T06:20:21.636Z,7.63
2018-03-31T06:22:48.575Z,9.07
2018-03-31T06:25:15.528Z,11.23
2018-03-31T06:27:42.512Z,8.10
2018-03-31T06:30:09.462Z,8.27
2018-03-31T06:32:36.412Z,10.20
2018-03-31T06:35:03.357Z,7.50
2018-03-31T06:37:30.330Z,8.20
2018-03-31T06:39:57.323Z,7.87
2018-03-31T06:42:24.265Z,6.97
2018-03-31T06:44:51.200Z,12.43
2018-03-31T06:47:18.161Z,16.90
2018-03-31T06:49:45.130Z,8.83
2018-03-31T06:52:12.120Z,6.33
2018-03-31T06:54:39.143Z,6.33
2018-03-31T06:57:06.058Z,6.80
2018-03-31T06:59:33.014Z,6.13
2018-03-31T07:01:59.973Z,7.37
2018-03-31T07:04:26.912Z,6.73
2018-03-31T07:06:53.857Z,7.70
2018-03-31T07:09:20.799Z,7.93
2018-03-31T07:11:47.753Z,6.13
2018-03-31T07:14:14.695Z,5.57
2018-03-31T07:16:41.627Z,5.63
2018-03-31T07:19:08.582Z,6.50
2018-03-31T07:21:35.544Z,5.67
2018-03-31T07:24:03.318Z,9.80
2018-03-31T07:26:30.354Z,5.97
2018-03-31T07:28:57.332Z,5.13
2018-03-31T07:31:24.265Z,5.73
2018-03-31T07:33:51.231Z,6.93
2018-03-31T07:36:18.177Z,6.40
2018-03-31T07:38:45.119Z,6.20
2018-03-31T07:41:12.090Z,6.57
2018-03-31T07:43:39.029Z,7.50
2018-03-31T07:46:05.987Z,5.20
2018-03-31T07:48:32.928Z,5.83
2018-03-31T07:50:59.859Z,5.40
2018-03-31T07:53:26.821Z,5.63
2018-03-31T07:55:53.786Z,5.57
2018-03-31T07:58:20.711Z,7.83
2018-03-31T08:00:47.657Z,7.70
2018-03-31T08:03:14.628Z,4.97
2018-03-31T08:05:41.596Z,4.90
2018-03-31T08:08:08.564Z,6.13
2018-03-31T08:10:35.533Z,5.40
2018-03-31T08:13:02.737Z,5.00
2018-03-31T08:15:29.690Z,5.77
2018-03-31T08:17:56.632Z,7.13
2018-03-31T08:20:23.577Z,7.20
2018-03-31T08:22:50.500Z,5.13
2018-03-31T08:25:17.423Z,5.20
2018-03-31T08:27:44.398Z,4.83
2018-03-31T08:30:11.342Z,5.70
2018-03-31T08:32:38.262Z,5.30
2018-03-31T08:35:05.212Z,4.90
2018-03-31T08:37:32.153Z,5.20
2018-03-31T08:39:59.097Z,4.50
2018-03-31T08:42:26.077Z,5.10
2018-03-31T08:44:53.036Z,5.43
2018-03-31T08:47:19.987Z,4.53
2018-03-31T08:49:46.904Z,3.70
2018-03-31T08:52:13.926Z,7.27
2018-03-31T08:54:40.892Z,4.97
2018-03-31T08:57:07.845Z,4.03
2018-03-31T08:59:34.793Z,3.50
2018-03-31T09:02:01.747Z,3.37
2018-03-31T09:04:28.679Z,5.47
2018-03-31T09:06:55.806Z,3.33
2018-03-31T09:09:22.838Z,4.60
2018-03-31T09:11:49.764Z,3.10
2018-03-31T09:14:16.748Z,3.40
2018-03-31T09:16:43.745Z,5.33
2018-03-31T09:19:10.628Z,3.50
2018-03-31T09:21:37.583Z,7.03
2018-03-31T09:24:04.866Z,2.70
2018-03-31T09:26:31.820Z,3.20
2018-03-31T09:28:58.810Z,3.27
2018-03-31T09:31:25.752Z,2.80
2018-03-31T09:33:52.682Z,2.53
2018-03-31T09:36:19.768Z,3.50
2018-03-31T09:38:46.726Z,2.97
2018-03-31T09:41:14.580Z,2.87
2018-03-31T09:43:41.537Z,3.47
2018-03-31T09:46:08.478Z,2.57
2018-03-31T09:48:35.978Z,3.30
2018-03-31T09:51:03.027Z,4.23
2018-03-31T09:53:44.596Z,3.50
2018-03-31T09:56:11.562Z,2.57
2018-03-31T09:58:38.516Z,2.87
2018-03-31T10:01:07.261Z,2.13
2018-03-31T10:03:35.776Z,3.40
2018-03-31T10:06:02.758Z,2.60
2018-03-31T10:08:29.669Z,3.50
2018-03-31T10:10:56.612Z,3.50
2018-03-31T10:13:23.582Z,12.10
2018-03-31T10:15:50.555Z,3.93
2018-03-31T10:18:18.152Z,2.80
2018-03-31T10:20:45.110Z,3.40
2018-03-31T10:23:12.104Z,3.63
2018-03-31T10:25:39.057Z,6.30
2018-03-31T10:30:39.365Z,3.73
2018-03-31T10:33:06.311Z,2.33
2018-03-31T10:35:33.279Z,4.83
2018-03-31T10:38:00.248Z,2.80
2018-03-31T10:40:27.209Z,2.80
2018-03-31T10:42:54.192Z,2.80
2018-03-31T10:45:21.158Z,3.30
2018-03-31T10:47:48.172Z,2.40
2018-03-31T10:50:15.125Z,3.00
2018-03-31T10:52:42.137Z,2.83
2018-03-31T10:55:09.062Z,5.93
2018-03-31T10:57:36.047Z,2.70
2018-03-31T11:00:02.994Z,2.50
2018-03-31T11:02:29.968Z,7.00
2018-03-31T11:04:56.886Z,8.93
2018-03-31T11:07:23.831Z,2.90
2018-03-31T11:09:50.770Z,4.07
2018-03-31T11:12:17.743Z,2.80
2018-03-31T11:14:44.695Z,3.03
2018-03-31T11:17:11.645Z,2.50
2018-03-31T11:19:38.597Z,4.60
2018-03-31T11:22:05.552Z,10.13
2018-03-31T11:24:32.496Z,9.67
2018-03-31T11:26:59.443Z,4.23
2018-03-31T11:29:26.382Z,3.60
2018-03-31T11:31:53.329Z,5.60
2018-03-31T11:34:20.291Z,2.50
2018-03-31T11:36:47.232Z,2.30
2018-03-31T11:39:14.237Z,3.00
2018-03-31T11:41:41.211Z,2.03
2018-03-31T11:44:08.223Z,3.93
2018-03-31T11:46:35.192Z,3.93
2018-03-31T11:49:02.200Z,4.57
2018-03-31T11:51:29.136Z,2.53
2018-03-31T11:53:56.080Z,3.77
2018-03-31T11:56:23.032Z,2.37
2018-03-31T11:58:49.964Z,3.93
2018-03-31T12:01:16.969Z,4.50
2018-03-31T12:03:43.910Z,6.10
2018-03-31T12:06:10.835Z,5.10
2018-03-31T12:08:37.798Z,4.00
2018-03-31T12:11:04.738Z,3.40
2018-03-31T12:13:31.696Z,3.50
2018-03-31T12:15:58.652Z,4.87
2018-03-31T12:18:25.585Z,10.60
2018-03-31T12:20:52.505Z,5.23
2018-03-31T12:23:19.457Z,5.23
2018-03-31T12:25:46.421Z,4.60
2018-03-31T12:28:13.381Z,3.20
2018-03-31T12:30:40.325Z,11.43
2018-03-31T12:33:07.268Z,9.63
2018-03-31T12:35:34.232Z,11.63
2018-03-31T12:38:01.206Z,12.53
2018-03-31T12:40:28.172Z,12.00
2018-03-31T12:42:55.150Z,11.93
2018-03-31T12:45:22.150Z,14.80
2018-03-31T12:47:49.098Z,12.93
2018-03-31T12:50:16.036Z,10.70
2018-03-31T12:52:42.982Z,9.47
2018-03-31T12:55:09.924Z,18.83
2018-03-31T12:57:36.881Z,7.50
2018-03-31T13:00:03.848Z,5.40
2018-03-31T13:02:30.812Z,6.90
2018-03-31T13:04:57.769Z,2.03
2018-03-31T13:07:24.720Z,5.10
2018-03-31T13:09:51.655Z,2.70
2018-03-31T13:12:18.598Z,5.60
2018-03-31T13:14:45.554Z,2.40
2018-03-31T13:17:12.539Z,2.40
2018-03-31T13:19:39.488Z,1.40
2018-03-31T13:22:06.459Z,3.57
2018-03-31T13:24:33.407Z,13.90
2018-03-31T13:27:00.359Z,11.27
2018-03-31T13:29:27.304Z,11.60
2018-03-31T13:31:54.232Z,10.50
2018-03-31T13:34:21.155Z,9.97
2018-03-31T13:36:48.113Z,6.97
2018-03-31T13:39:15.039Z,11.07
2018-03-31T13:41:42.008Z,11.80
2018-03-31T13:44:08.969Z,13.87
2018-03-31T13:46:35.948Z,12.00
2018-03-31T13:49:02.892Z,14.67
2018-03-31T13:51:29.845Z,12.50
2018-03-31T13:53:56.807Z,12.37
2018-03-31T13:56:23.769Z,13.13
2018-03-31T13:58:50.711Z,15.80
2018-03-31T14:01:17.661Z,15.93
2018-03-31T14:03:44.661Z,12.27
2018-03-31T14:06:12.460Z,12.80
2018-03-31T14:08:39.400Z,10.43
2018-03-31T14:11:06.461Z,11.07
2018-03-31T14:13:34.230Z,12.07
2018-03-31T14:16:01.186Z,11.47
2018-03-31T14:18:28.140Z,10.73
2018-03-31T14:20:55.093Z,10.87
2018-03-31T14:23:22.024Z,11.70
2018-03-31T14:25:48.971Z,12.47
2018-03-31T14:28:15.944Z,10.63
2018-03-31T14:30:42.926Z,13.73
2018-03-31T14:33:09.861Z,10.67
2018-03-31T14:35:36.805Z,11.30
2018-03-31T14:38:03.788Z,11.80
2018-03-31T14:40:30.815Z,12.43
2018-03-31T14:42:57.744Z,12.63
2018-03-31T14:45:24.708Z,12.57
2018-03-31T14:47:51.695Z,13.67
2018-03-31T14:50:18.639Z,19.10
2018-03-31T14:52:45.585Z,14.13
2018-03-31T14:55:12.527Z,16.20
2018-03-31T14:57:39.518Z,14.37
2018-03-31T15:00:06.483Z,12.53
2018-03-31T15:02:33.478Z,10.90
2018-03-31T15:05:00.457Z,14.53
2018-03-31T15:07:27.407Z,14.33
2018-03-31T15:09:54.387Z,14.10
2018-03-31T15:12:21.364Z,13.10
2018-03-31T15:14:48.306Z,11.63
2018-03-31T15:17:15.256Z,12.33
2018-03-31T15:19:43.097Z,14.47
2018-03-31T15:22:10.060Z,11.93
2018-03-31T15:24:38.247Z,11.67
2018-03-31T15:27:05.218Z,11.27
2018-03-31T15:29:32.209Z,10.53
2018-03-31T15:31:59.302Z,11.83
2018-03-31T15:34:26.349Z,12.60
2018-03-31T15:36:53.315Z,11.03
2018-03-31T15:39:20.281Z,13.03
2018-03-31T15:41:47.229Z,12.07
2018-03-31T15:44:14.173Z,12.93
2018-03-31T15:46:41.336Z,16.83
2018-03-31T15:49:08.255Z,17.10
2018-03-31T15:51:35.209Z,13.43
2018-03-31T15:54:02.162Z,13.00
2018-03-31T15:56:30.024Z,14.03
2018-03-31T15:58:56.987Z,14.50
2018-03-31T16:01:23.957Z,15.10
2018-03-31T16:03:50.939Z,17.03
2018-03-31T16:06:17.909Z,15.53
2018-03-31T16:08:44.854Z,18.23
2018-03-31T16:11:11.814Z,15.77
2018-03-31T16:13:38.788Z,19.80
2018-03-31T16:16:05.747Z,19.27
2018-03-31T16:18:32.705Z,22.27
2018-03-31T16:20:59.687Z,23.80
2018-03-31T16:23:26.651Z,23.87
2018-03-31T16:25:53.616Z,19.17
2018-03-31T16:28:20.570Z,21.40
2018-03-31T16:30:47.524Z,21.13
2018-03-31T16:33:14.453Z,22.90
2018-03-31T16:35:41.396Z,21.57
2018-03-31T16:38:08.344Z,23.30
2018-03-31T16:40:35.276Z,21.97
2018-03-31T16:43:02.217Z,24.00
2018-03-31T16:45:29.182Z,20.37
2018-03-31T16:47:56.116Z,17.67
2018-03-31T16:50:23.071Z,17.87
2018-03-31T16:52:50.004Z,16.53
2018-03-31T16:55:16.944Z,19.57
2018-03-31T16:57:43.961Z,16.10
2018-03-31T17:00:10.899Z,15.80
2018-03-31T17:02:37.841Z,14.10
2018-03-31T17:05:04.808Z,15.77
2018-03-31T17:07:31.792Z,13.33
2018-03-31T17:09:58.737Z,17.23
2018-03-31T17:12:25.700Z,12.97
2018-03-31T17:14:52.671Z,15.33
2018-03-31T17:17:19.656Z,15.57
2018-03-31T17:19:46.608Z,13.37
2018-03-31T17:22:13.549Z,14.90
2018-03-31T17:24:40.486Z,13.07
2018-03-31T17:27:07.467Z,12.73
2018-03-31T17:29:34.393Z,13.30
2018-03-31T17:32:01.367Z,14.23
2018-03-31T17:34:28.324Z,12.30
2018-03-31T17:36:55.300Z,11.90
2018-03-31T17:39:22.745Z,10.80
2018-03-31T17:41:49.687Z,10.50
2018-03-31T17:44:16.663Z,10.50
2018-03-31T17:46:43.615Z,10.23
2018-03-31T17:49:10.605Z,11.43
2018-03-31T17:51:37.494Z,9.80
2018-03-31T17:54:04.851Z,10.60
2018-03-31T17:56:31.952Z,9.87
2018-03-31T17:58:58.913Z,9.80
2018-03-31T18:01:25.879Z,8.73
2018-03-31T18:03:52.804Z,7.10
2018-03-31T18:06:19.748Z,9.60
2018-03-31T18:08:46.684Z,9.13
2018-03-31T18:11:13.610Z,8.80
2018-03-31T18:13:40.584Z,9.07
2018-03-31T18:16:07.588Z,8.83
2018-03-31T18:18:34.540Z,8.73
2018-03-31T18:21:01.486Z,8.23
2018-03-31T18:23:28.414Z,8.63
2018-03-31T18:25:55.360Z,7.47
2018-03-31T18:28:22.336Z,9.23
2018-03-31T18:30:49.294Z,9.20
2018-03-31T18:33:16.252Z,11.00
2018-03-31T18:35:43.199Z,9.70
2018-03-31T18:38:10.148Z,9.90
2018-03-31T18:40:37.101Z,12.73
2018-03-31T18:43:04.058Z,12.33
2018-03-31T18:45:31.019Z,16.13
2018-03-31T18:47:57.974Z,14.03
2018-03-31T18:50:24.924Z,15.90
2018-03-31T18:52:52.231Z,14.30
2018-03-31T18:55:20.125Z,14.40
2018-03-31T18:57:47.053Z,13.80
2018-03-31T19:00:14.028Z,14.27
2018-03-31T19:02:40.992Z,16.07
2018-03-31T19:05:07.950Z,15.10
2018-03-31T19:07:34.928Z,15.30
2018-03-31T19:10:01.877Z,15.47
2018-03-31T19:12:28.858Z,16.50
2018-03-31T19:14:55.828Z,15.60
2018-03-31T19:17:22.864Z,15.77
2018-03-31T19:19:49.855Z,17.33
2018-03-31T19:22:16.861Z,18.40
2018-03-31T19:24:49.381Z,17.40
2018-03-31T19:27:16.313Z,21.63
2018-03-31T19:29:43.260Z,19.17
2018-03-31T19:32:10.253Z,18.10
2018-03-31T19:34:37.200Z,20.17
2018-03-31T19:37:04.147Z,20.47
2018-03-31T19:39:38.068Z,17.30
2018-03-31T19:42:05.010Z,18.80
2018-03-31T19:44:32.267Z,22.50
2018-03-31T19:47:00.085Z,21.15
2018-03-31T19:49:27.088Z,27.13
2018-03-31T19:51:54.084Z,21.40
2018-03-31T19:54:21.069Z,20.77
2018-03-31T19:56:48.012Z,19.93
2018-03-31T19:59:14.932Z,20.13
2018-03-31T20:01:41.926Z,20.03
2018-03-31T20:04:08.893Z,22.03
2018-03-31T20:06:35.818Z,21.40
2018-03-31T20:09:02.743Z,20.40
2018-03-31T20:11:29.683Z,17.33
2018-03-31T20:13:56.612Z,19.83
2018-03-31T20:16:23.557Z,17.40
2018-03-31T20:18:50.539Z,13.83
2018-03-31T20:21:17.656Z,11.77
2018-03-31T20:23:44.588Z,13.07
2018-03-31T20:26:11.558Z,14.10
2018-03-31T20:28:38.584Z,12.40
2018-03-31T20:31:05.565Z,12.17
2018-03-31T20:33:32.527Z,10.40
2018-03-31T20:35:59.522Z,14.57
2018-03-31T20:38:26.492Z,10.67
2018-03-31T20:40:53.486Z,11.00
2018-03-31T20:43:20.455Z,11.23
2018-03-31T20:45:47.979Z,11.70
2018-03-31T20:50:47.112Z,13.17
2018-03-31T20:53:14.080Z,14.57
2018-03-31T20:55:41.036Z,13.03
2018-03-31T20:58:08.046Z,14.70
2018-03-31T21:00:35.011Z,12.90
2018-03-31T21:03:02.188Z,14.73
2018-03-31T21:05:29.190Z,12.43
2018-03-31T21:07:56.136Z,11.87
2018-03-31T21:10:23.098Z,12.50
2018-03-31T21:12:50.090Z,14.50
2018-03-31T21:15:17.080Z,13.00
2018-03-31T21:17:44.113Z,11.50
2018-03-31T21:20:11.101Z,12.80
2018-03-31T21:22:38.087Z,12.77
2018-03-31T21:25:05.056Z,14.63
2018-03-31T21:27:33.443Z,12.93
2018-03-31T21:30:00.616Z,11.33
2018-03-31T21:32:27.625Z,11.17
2018-03-31T21:34:54.672Z,10.63
2018-03-31T21:37:21.614Z,11.03
2018-03-31T21:39:48.636Z,11.17
2018-03-31T21:42:15.617Z,13.67
2018-03-31T21:44:42.879Z,11.23
2018-03-31T21:47:09.878Z,12.80
2018-03-31T21:49:36.853Z,11.03
2018-03-31T21:52:03.833Z,11.27
2018-03-31T21:54:30.780Z,11.57
2018-03-31T21:56:57.737Z,12.40
2018-03-31T21:59:24.694Z,13.50
2018-03-31T22:01:51.710Z,14.47
2018-03-31T22:04:18.628Z,15.20
2018-03-31T22:06:45.578Z,13.23
2018-03-31T22:09:12.515Z,15.63
2018-03-31T22:11:39.443Z,14.73
2018-03-31T22:14:11.981Z,16.20
2018-03-31T22:16:38.916Z,17.90
2018-03-31T22:19:05.836Z,17.87
2018-03-31T22:21:32.771Z,18.07
2018-03-31T22:23:59.705Z,19.63
2018-03-31T22:26:26.643Z,18.40
2018-03-31T22:28:53.591Z,19.00
2018-03-31T22:31:20.525Z,17.07
2018-03-31T22:33:47.473Z,17.03
2018-03-31T22:36:14.399Z,18.17
2018-03-31T22:38:41.602Z,15.40
2018-03-31T22:41:08.579Z,17.00
2018-03-31T22:43:35.531Z,18.60
2018-03-31T22:46:02.486Z,17.70
2018-03-31T22:48:29.419Z,19.93
2018-03-31T22:50:56.320Z,19.90
2018-03-31T22:53:23.262Z,19.80
2018-03-31T22:55:50.197Z,19.50
2018-03-31T22:58:17.115Z,19.60
2018-03-31T23:00:44.691Z,20.47
2018-03-31T23:03:11.625Z,18.60
2018-03-31T23:05:38.593Z,24.43
2018-03-31T23:08:05.516Z,16.97
2018-03-31T23:10:32.471Z,17.57
2018-03-31T23:12:59.403Z,18.13
2018-03-31T23:15:26.361Z,19.13
2018-03-31T23:17:53.321Z,16.00
2018-03-31T23:20:20.256Z,16.83
2018-03-31T23:22:47.189Z,17.27
2018-03-31T23:25:14.129Z,21.57
2018-03-31T23:27:41.047Z,19.40
2018-03-31T23:30:08.009Z,18.80
2018-03-31T23:32:34.947Z,19.73
2018-03-31T23:35:01.901Z,18.50
2018-03-31T23:37:28.900Z,20.57
2018-03-31T23:39:55.819Z,18.63
2018-03-31T23:42:22.760Z,20.43
2018-03-31T23:44:49.680Z,19.97
2018-03-31T23:47:16.587Z,19.90
2018-03-31T23:49:43.531Z,21.20
2018-03-31T23:52:10.466Z,20.57
2018-03-31T23:54:37.379Z,22.10
2018-03-31T23:57:04.308Z,21.17
2018-03-31T23:59:31.258Z,21.77
